createdAt,value
2019-02-12T00:10:46.770Z,8.50
2019-02-12T00:16:10.083Z,6.30
2019-02-12T00:21:14.349Z,5.67
2019-02-12T00:26:37.564Z,5.80
2019-02-12T00:31:41.788Z,5.27
2019-02-12T00:37:05.091Z,5.27
2019-02-12T00:42:28.339Z,5.23
2019-02-12T00:47:39.921Z,5.00
2019-02-12T00:52:55.525Z,6.37
2019-02-12T00:57:59.762Z,5.20
2019-02-12T01:08:33.145Z,5.57
2019-02-12T01:13:37.391Z,5.77
2019-02-12T01:18:41.752Z,6.03
2019-02-12T01:23:45.979Z,5.03
2019-02-12T01:28:50.470Z,4.87
2019-02-12T01:39:23.701Z,5.50
2019-02-12T01:49:38.005Z,5.10
2019-02-12T01:54:53.528Z,4.07
2019-02-12T01:59:58.124Z,5.00
2019-02-12T02:05:21.723Z,5.00
2019-02-12T02:10:44.857Z,4.67
2019-02-12T02:15:49.449Z,4.77
2019-02-12T02:21:12.758Z,4.27
2019-02-12T02:26:17.002Z,5.47
2019-02-12T02:36:31.816Z,5.20
2019-02-12T02:41:55.115Z,6.40
2019-02-12T02:47:18.403Z,5.27
2019-02-12T02:52:22.628Z,5.03
2019-02-12T02:57:26.906Z,5.27
2019-02-12T03:07:41.225Z,4.73
2019-02-12T03:12:45.486Z,5.10
2019-02-12T03:17:49.726Z,4.83
2019-02-12T03:23:13.049Z,5.47
2019-02-12T03:28:17.282Z,5.73
2019-02-12T03:33:40.602Z,6.37
2019-02-12T03:38:45.095Z,7.03
2019-02-12T03:43:49.406Z,6.67
2019-02-12T03:48:53.584Z,4.83
2019-02-12T03:59:47.363Z,7.70
2019-02-12T04:10:20.234Z,4.70
2019-02-12T04:15:24.527Z,5.30
2019-02-12T04:20:28.759Z,5.30
2019-02-12T04:25:52.133Z,5.07
2019-02-12T04:30:56.370Z,5.30
2019-02-12T04:36:00.620Z,4.97
2019-02-12T04:41:04.910Z,6.20
2019-02-12T04:46:09.135Z,5.40
2019-02-12T04:51:13.474Z,6.07
2019-02-12T04:56:36.795Z,5.83
2019-02-12T05:01:41.097Z,6.50
2019-02-12T05:12:35.324Z,6.37
2019-02-12T05:17:39.622Z,6.13
2019-02-12T05:27:53.218Z,5.47
2019-02-12T05:32:57.471Z,5.23
2019-02-12T05:38:20.880Z,4.53
2019-02-12T05:43:25.113Z,5.47
2019-02-12T05:48:48.410Z,5.40
2019-02-12T05:53:52.660Z,5.47
2019-02-12T05:59:16.257Z,4.67
2019-02-12T06:19:49.512Z,5.77
2019-02-12T06:25:13.133Z,5.60
2019-02-12T06:30:17.369Z,5.43
2019-02-12T06:35:21.613Z,4.83
2019-02-12T06:40:44.826Z,4.87
2019-02-12T06:45:49.116Z,6.67
2019-02-12T06:50:53.366Z,6.70
2019-02-12T06:55:57.615Z,6.83
2019-02-12T07:01:21.301Z,7.63
2019-02-12T07:06:36.938Z,6.70
2019-02-12T07:12:30.240Z,6.87
2019-02-12T07:18:12.523Z,7.33
2019-02-12T07:23:51.598Z,7.77
2019-02-12T07:29:20.410Z,6.87
2019-02-12T07:34:51.198Z,8.77
2019-02-12T07:40:33.563Z,8.83
2019-02-12T07:46:15.885Z,7.13
2019-02-12T07:51:58.149Z,6.87
2019-02-12T07:57:40.751Z,7.30
2019-02-12T08:03:23.144Z,5.07
2019-02-12T08:08:55.892Z,5.53
2019-02-12T08:14:38.208Z,5.30
2019-02-12T08:20:22.232Z,5.43
2019-02-12T08:26:04.513Z,5.37
2019-02-12T08:31:46.912Z,5.23
2019-02-12T08:37:29.201Z,6.40
2019-02-12T08:43:11.746Z,5.40
2019-02-12T08:48:54.025Z,6.37
2019-02-12T08:54:36.314Z,6.00
2019-02-12T09:00:24.145Z,5.80
2019-02-12T09:06:06.423Z,6.47
2019-02-12T09:11:48.883Z,4.73
2019-02-12T09:17:31.213Z,5.47
2019-02-12T09:23:13.611Z,5.03
2019-02-12T09:28:39.647Z,4.37
2019-02-12T09:34:21.923Z,4.70
2019-02-12T09:40:04.276Z,4.73
2019-02-12T09:45:49.626Z,4.93
2019-02-12T09:51:32.056Z,5.10
2019-02-12T09:57:14.694Z,4.97
2019-02-12T10:08:52.985Z,4.97
2019-02-12T10:14:22.363Z,4.70
2019-02-12T10:26:02.600Z,4.50
2019-02-12T10:36:37.269Z,4.57
2019-02-12T10:41:41.889Z,3.73
2019-02-12T10:46:46.996Z,4.13
2019-02-12T10:52:31.057Z,4.00
2019-02-12T10:57:36.078Z,3.57
2019-02-12T11:02:40.323Z,4.00
2019-02-12T11:12:54.633Z,3.60
2019-02-12T11:17:58.897Z,4.10
2019-02-12T11:23:03.416Z,3.33
2019-02-12T11:28:07.689Z,4.30
2019-02-12T11:38:40.769Z,3.93
2019-02-12T11:43:45.097Z,4.40
2019-02-12T11:48:49.429Z,3.53
2019-02-12T11:54:13.066Z,4.00
2019-02-12T11:59:36.568Z,3.67
2019-02-12T12:04:40.934Z,3.87
2019-02-12T12:09:45.276Z,3.73
2019-02-12T12:15:08.774Z,4.00
2019-02-12T12:20:13.129Z,3.20
2019-02-12T12:25:17.433Z,3.83
2019-02-12T12:30:21.739Z,3.50
2019-02-12T12:35:45.052Z,3.47
2019-02-12T12:41:08.353Z,3.67
2019-02-12T12:46:12.618Z,3.57
2019-02-12T12:51:16.904Z,3.50
2019-02-12T12:56:21.165Z,4.27
2019-02-12T13:01:25.427Z,4.60
2019-02-12T13:16:49.146Z,2.93
2019-02-12T13:21:53.520Z,2.87
2019-02-12T13:37:55.499Z,3.10
2019-02-12T13:43:18.739Z,3.37
2019-02-12T13:48:42.043Z,3.47
2019-02-12T13:53:46.484Z,2.70
2019-02-12T13:58:51.091Z,2.60
2019-02-12T14:04:14.433Z,2.77
2019-02-12T14:14:47.752Z,2.90
2019-02-12T14:19:52.095Z,3.00
2019-02-12T14:25:07.702Z,3.10
2019-02-12T14:30:52.555Z,2.67
2019-02-12T14:35:56.859Z,3.07
2019-02-12T14:41:20.089Z,3.37
2019-02-12T14:46:24.385Z,2.70
2019-02-12T14:51:29.219Z,2.37
2019-02-12T14:56:33.933Z,3.17
2019-02-12T15:01:38.403Z,3.13
2019-02-12T15:06:42.661Z,3.10
2019-02-12T15:11:46.929Z,2.93
2019-02-12T15:16:51.329Z,2.80
2019-02-12T15:21:55.734Z,3.37
2019-02-12T15:27:00.027Z,3.20
2019-02-12T15:32:04.428Z,2.97
2019-02-12T15:37:08.829Z,3.80
2019-02-12T15:42:13.355Z,3.80
2019-02-12T15:47:17.789Z,3.70
2019-02-12T15:52:22.133Z,3.20
2019-02-12T15:57:27.164Z,3.33
2019-02-12T16:02:32.037Z,3.10
2019-02-12T16:07:38.486Z,4.43
2019-02-12T16:12:43.371Z,4.77
2019-02-12T16:17:47.606Z,13.47
2019-02-12T16:22:51.998Z,6.47
2019-02-12T16:27:56.459Z,19.13
2019-02-12T16:33:00.790Z,13.30
2019-02-12T16:38:05.377Z,7.13
2019-02-12T16:43:09.917Z,13.43
2019-02-12T16:48:14.483Z,11.13
2019-02-12T16:53:18.802Z,6.93
2019-02-12T16:58:23.074Z,12.27
2019-02-12T17:03:27.395Z,11.13
2019-02-12T17:08:31.623Z,12.00
2019-02-12T17:13:36.197Z,6.03
2019-02-12T17:18:40.442Z,4.10
2019-02-12T17:23:44.742Z,4.30
2019-02-12T17:28:49.135Z,9.17
2019-02-12T17:33:53.430Z,6.20
2019-02-12T17:38:57.723Z,4.43
2019-02-12T17:44:02.021Z,4.53
2019-02-12T18:02:55.690Z,7.37
2019-02-12T18:08:01.346Z,10.40
2019-02-12T18:13:06.605Z,9.10
2019-02-12T18:18:11.812Z,14.67
2019-02-12T18:23:17.021Z,19.37
2019-02-12T18:28:22.220Z,16.90
2019-02-12T18:33:38.839Z,12.27
2019-02-12T18:44:19.744Z,8.43
2019-02-12T18:49:44.538Z,10.90
2019-02-12T18:55:09.374Z,14.17
2019-02-12T19:06:14.420Z,11.27
2019-02-12T19:16:36.330Z,10.87
2019-02-12T19:21:41.554Z,10.53
2019-02-12T19:26:49.961Z,10.40
2019-02-12T19:42:32.873Z,10.93
2019-02-12T19:47:38.097Z,11.07
2019-02-12T19:52:43.307Z,9.40
2019-02-12T19:58:09.551Z,8.87
2019-02-12T20:08:32.387Z,11.40
2019-02-12T20:13:43.430Z,13.60
2019-02-12T20:19:00.399Z,12.17
2019-02-12T20:29:41.329Z,11.23
2019-02-12T20:34:46.847Z,10.73
2019-02-12T20:45:28.478Z,10.90
2019-02-12T20:50:33.891Z,11.07
2019-02-12T20:55:41.588Z,8.87
2019-02-12T21:00:46.778Z,10.77
2019-02-12T21:06:03.478Z,10.20
2019-02-12T21:11:09.064Z,10.43
2019-02-12T21:16:25.864Z,9.90
2019-02-12T21:27:40.759Z,8.40
2019-02-12T21:32:46.269Z,10.27
2019-02-12T21:38:04.352Z,9.70
2019-02-12T21:48:27.576Z,9.17
2019-02-12T21:59:03.030Z,17.03
2019-02-12T22:04:08.250Z,16.40
2019-02-12T22:09:13.473Z,17.30
2019-02-12T22:14:18.707Z,20.23
2019-02-12T22:19:24.024Z,19.10
2019-02-12T22:30:16.322Z,11.20
2019-02-12T22:35:22.176Z,9.07
2019-02-12T22:40:28.522Z,8.17
2019-02-12T22:45:34.149Z,9.50
2019-02-12T22:50:39.477Z,14.10
2019-02-12T22:56:03.723Z,14.80
2019-02-12T23:01:20.937Z,12.20
2019-02-12T23:06:27.335Z,9.90
2019-02-12T23:17:28.087Z,9.90
2019-02-12T23:22:55.591Z,9.60
2019-02-12T23:28:21.022Z,8.80
2019-02-12T23:34:08.036Z,8.73
2019-02-12T23:39:14.308Z,16.17
2019-02-12T23:44:21.535Z,10.20
2019-02-12T23:49:38.894Z,9.77
